createdAt,value
2023-01-31T00:00:42.980Z,1020.72
2023-01-31T00:01:42.941Z,1020.71
2023-01-31T00:02:43.029Z,1020.75
2023-01-31T00:03:42.948Z,1020.75
2023-01-31T00:04:42.916Z,1020.78
2023-01-31T00:05:42.900Z,1020.75
2023-01-31T00:06:42.920Z,1020.79
2023-01-31T00:07:42.909Z,1020.79
2023-01-31T00:08:42.919Z,1020.77
2023-01-31T00:09:42.892Z,1020.78
2023-01-31T00:10:42.880Z,1020.81
2023-01-31T00:11:42.893Z,1020.78
2023-01-31T00:12:42.876Z,1020.79
2023-01-31T00:13:42.855Z,1020.74
2023-01-31T00:14:42.855Z,1020.74
2023-01-31T00:15:42.897Z,1020.71
2023-01-31T00:16:42.884Z,1020.65
2023-01-31T00:17:42.851Z,1020.72
2023-01-31T00:18:42.844Z,1020.74
2023-01-31T00:19:42.842Z,1020.79
2023-01-31T00:20:42.839Z,1020.79
2023-01-31T00:21:42.828Z,1020.81
2023-01-31T00:22:42.830Z,1020.83
2023-01-31T00:23:42.804Z,1020.83
2023-01-31T00:24:42.816Z,1020.87
2023-01-31T00:25:42.807Z,1020.84
2023-01-31T00:26:42.874Z,1020.80
2023-01-31T00:27:42.800Z,1020.76
2023-01-31T00:28:42.798Z,1020.80
2023-01-31T00:29:42.769Z,1020.76
2023-01-31T00:30:42.788Z,1020.72
2023-01-31T00:31:42.947Z,1020.71
2023-01-31T00:32:42.795Z,1020.70
2023-01-31T00:33:42.748Z,1020.67
2023-01-31T00:34:42.757Z,1020.71
2023-01-31T00:35:42.734Z,1020.72
2023-01-31T00:36:42.758Z,1020.75
2023-01-31T00:37:42.728Z,1020.73
2023-01-31T00:38:42.719Z,1020.71
2023-01-31T00:39:42.734Z,1020.77
2023-01-31T00:40:42.720Z,1020.76
2023-01-31T00:41:42.715Z,1020.75
2023-01-31T00:42:42.706Z,1020.74
2023-01-31T00:43:42.693Z,1020.73
2023-01-31T00:44:42.696Z,1020.73
2023-01-31T00:45:42.693Z,1020.71
2023-01-31T00:46:42.740Z,1020.67
2023-01-31T00:47:42.683Z,1020.67
2023-01-31T00:48:42.694Z,1020.68
2023-01-31T00:49:42.673Z,1020.67
2023-01-31T00:50:42.675Z,1020.67
2023-01-31T00:51:42.660Z,1020.63
2023-01-31T00:52:42.678Z,1020.66
2023-01-31T00:53:42.644Z,1020.71
2023-01-31T00:54:42.645Z,1020.65
2023-01-31T00:55:42.629Z,1020.69
2023-01-31T00:56:42.642Z,1020.65
2023-01-31T00:57:42.614Z,1020.66
2023-01-31T00:58:42.641Z,1020.63
2023-01-31T00:59:42.597Z,1020.62
2023-01-31T01:00:42.632Z,1020.65
2023-01-31T01:01:42.628Z,1020.67
2023-01-31T01:02:42.592Z,1020.64
2023-01-31T01:03:42.579Z,1020.66
2023-01-31T01:04:42.614Z,1020.75
2023-01-31T01:05:42.584Z,1020.68
2023-01-31T01:06:42.566Z,1020.75
2023-01-31T01:07:42.571Z,1020.71
2023-01-31T01:08:42.562Z,1020.74
2023-01-31T01:09:42.558Z,1020.79
2023-01-31T01:10:42.557Z,1020.76
2023-01-31T01:11:42.534Z,1020.80
2023-01-31T01:12:42.538Z,1020.78
2023-01-31T01:13:42.537Z,1020.82
2023-01-31T01:14:42.521Z,1020.80
2023-01-31T01:15:42.512Z,1020.82
2023-01-31T01:16:42.623Z,1020.77
2023-01-31T01:17:42.515Z,1020.76
2023-01-31T01:18:42.497Z,1020.76
2023-01-31T01:19:42.495Z,1020.77
2023-01-31T01:20:42.515Z,1020.78
2023-01-31T01:21:42.483Z,1020.78
2023-01-31T01:22:42.487Z,1020.81
2023-01-31T01:23:42.468Z,1020.80
2023-01-31T01:24:42.458Z,1020.79
2023-01-31T01:25:42.481Z,1020.80
2023-01-31T01:26:42.534Z,1020.77
2023-01-31T01:27:42.461Z,1020.75
2023-01-31T01:28:42.440Z,1020.79
2023-01-31T01:29:42.444Z,1020.81
2023-01-31T01:30:42.426Z,1020.77
2023-01-31T01:31:42.551Z,1020.78
2023-01-31T01:32:42.416Z,1020.74
2023-01-31T01:33:42.426Z,1020.77
2023-01-31T01:34:42.426Z,1020.82
2023-01-31T01:35:42.411Z,1020.80
2023-01-31T01:36:42.416Z,1020.82
2023-01-31T01:37:42.391Z,1020.83
2023-01-31T01:38:42.381Z,1020.84
2023-01-31T01:39:42.393Z,1020.81
2023-01-31T01:40:42.388Z,1020.82
2023-01-31T01:41:42.381Z,1020.79
2023-01-31T01:42:42.375Z,1020.80
2023-01-31T01:43:42.374Z,1020.79
2023-01-31T01:44:42.341Z,1020.81
2023-01-31T01:45:42.373Z,1020.78
2023-01-31T01:46:42.344Z,1020.79
2023-01-31T01:47:42.337Z,1020.81
2023-01-31T01:48:42.329Z,1020.77
2023-01-31T01:49:42.317Z,1020.72
2023-01-31T01:50:42.314Z,1020.70
2023-01-31T01:51:42.325Z,1020.66
2023-01-31T01:52:42.346Z,1020.67
2023-01-31T01:53:42.313Z,1020.61
2023-01-31T01:54:42.290Z,1020.67
2023-01-31T01:55:42.307Z,1020.63
2023-01-31T01:56:42.290Z,1020.62
2023-01-31T01:57:42.275Z,1020.62
2023-01-31T01:58:42.281Z,1020.62
2023-01-31T01:59:42.280Z,1020.62
2023-01-31T02:00:42.284Z,1020.68
2023-01-31T02:01:42.254Z,1020.64
2023-01-31T02:02:42.267Z,1020.66
2023-01-31T02:03:42.264Z,1020.61
2023-01-31T02:04:42.248Z,1020.63
2023-01-31T02:05:42.260Z,1020.65
2023-01-31T02:06:42.229Z,1020.65
2023-01-31T02:07:42.785Z,1020.60
2023-01-31T02:08:42.251Z,1020.63
2023-01-31T02:09:42.214Z,1020.65
2023-01-31T02:10:42.217Z,1020.66
2023-01-31T02:11:42.220Z,1020.65
2023-01-31T02:12:42.187Z,1020.65
2023-01-31T02:13:42.192Z,1020.60
2023-01-31T02:14:42.209Z,1020.59
2023-01-31T02:15:42.181Z,1020.58
2023-01-31T02:16:42.285Z,1020.62
2023-01-31T02:17:42.160Z,1020.67
2023-01-31T02:18:42.169Z,1020.61
2023-01-31T02:19:42.154Z,1020.64
2023-01-31T02:20:42.164Z,1020.63
2023-01-31T02:21:42.136Z,1020.67
2023-01-31T02:22:42.146Z,1020.65
2023-01-31T02:23:42.133Z,1020.63
2023-01-31T02:24:42.142Z,1020.67
2023-01-31T02:25:42.132Z,1020.66
2023-01-31T02:26:42.138Z,1020.70
2023-01-31T02:27:42.110Z,1020.69
2023-01-31T02:28:42.108Z,1020.68
2023-01-31T02:29:42.106Z,1020.66
2023-01-31T02:30:42.102Z,1020.68
2023-01-31T02:31:42.124Z,1020.63
2023-01-31T02:32:42.101Z,1020.65
2023-01-31T02:33:42.072Z,1020.65
2023-01-31T02:34:42.061Z,1020.66
2023-01-31T02:35:42.064Z,1020.67
2023-01-31T02:36:42.056Z,1020.71
2023-01-31T02:37:42.061Z,1020.66
2023-01-31T02:38:42.040Z,1020.66
2023-01-31T02:39:42.056Z,1020.65
2023-01-31T02:40:42.062Z,1020.62
2023-01-31T02:41:42.027Z,1020.65
2023-01-31T02:42:42.023Z,1020.61
2023-01-31T02:43:42.036Z,1020.67
2023-01-31T02:44:42.025Z,1020.60
2023-01-31T02:45:42.060Z,1020.58
2023-01-31T02:46:42.000Z,1020.61
2023-01-31T02:47:42.004Z,1020.59
2023-01-31T02:48:41.996Z,1020.57
2023-01-31T02:49:41.996Z,1020.53
2023-01-31T02:50:41.991Z,1020.52
2023-01-31T02:51:41.972Z,1020.57
2023-01-31T02:52:41.993Z,1020.61
2023-01-31T02:53:41.960Z,1020.61
2023-01-31T02:54:41.962Z,1020.62
2023-01-31T02:55:41.967Z,1020.62
2023-01-31T02:56:41.979Z,1020.61
2023-01-31T02:57:41.950Z,1020.59
2023-01-31T02:58:41.945Z,1020.56
2023-01-31T02:59:41.934Z,1020.59
2023-01-31T03:00:41.970Z,1020.61
2023-01-31T03:01:42.025Z,1020.65
2023-01-31T03:02:42.045Z,1020.69
2023-01-31T03:03:41.943Z,1020.64
2023-01-31T03:04:41.901Z,1020.65
2023-01-31T03:05:41.894Z,1020.65
2023-01-31T03:06:41.894Z,1020.66
2023-01-31T03:07:41.898Z,1020.64
2023-01-31T03:08:41.896Z,1020.64
2023-01-31T03:09:41.890Z,1020.65
2023-01-31T03:10:41.882Z,1020.63
2023-01-31T03:11:41.875Z,1020.62
2023-01-31T03:12:41.893Z,1020.65
2023-01-31T03:13:41.850Z,1020.63
2023-01-31T03:14:41.841Z,1020.59
2023-01-31T03:15:41.841Z,1020.62
2023-01-31T03:16:41.880Z,1020.55
2023-01-31T03:17:41.840Z,1020.54
2023-01-31T03:18:41.831Z,1020.54
2023-01-31T03:19:41.819Z,1020.53
2023-01-31T03:20:41.808Z,1020.57
2023-01-31T03:21:41.819Z,1020.55
2023-01-31T03:22:41.805Z,1020.54
2023-01-31T03:23:41.813Z,1020.50
2023-01-31T03:24:41.796Z,1020.50
2023-01-31T03:25:41.789Z,1020.54
2023-01-31T03:26:41.855Z,1020.52
2023-01-31T03:27:41.772Z,1020.47
2023-01-31T03:28:41.795Z,1020.52
2023-01-31T03:29:41.763Z,1020.47
2023-01-31T03:30:41.825Z,1020.45
2023-01-31T03:31:41.868Z,1020.43
2023-01-31T03:32:41.743Z,1020.46
2023-01-31T03:33:41.747Z,1020.44
2023-01-31T03:34:41.732Z,1020.41
2023-01-31T03:35:41.733Z,1020.39
2023-01-31T03:36:41.731Z,1020.43
2023-01-31T03:37:41.726Z,1020.44
2023-01-31T03:38:41.703Z,1020.46
2023-01-31T03:39:41.703Z,1020.49
2023-01-31T03:40:41.729Z,1020.49
2023-01-31T03:41:41.712Z,1020.49
2023-01-31T03:42:41.684Z,1020.50
2023-01-31T03:43:41.701Z,1020.52
2023-01-31T03:44:41.693Z,1020.49
2023-01-31T03:45:41.697Z,1020.47
2023-01-31T03:46:41.668Z,1020.45
2023-01-31T03:47:41.683Z,1020.45
2023-01-31T03:48:41.666Z,1020.42
2023-01-31T03:49:41.659Z,1020.40
2023-01-31T03:50:41.648Z,1020.39
2023-01-31T03:51:41.657Z,1020.39
2023-01-31T03:52:41.637Z,1020.35
2023-01-31T03:53:41.625Z,1020.34
2023-01-31T03:54:41.630Z,1020.36
2023-01-31T03:55:41.624Z,1020.36
2023-01-31T03:56:41.625Z,1020.39
2023-01-31T03:57:41.618Z,1020.42
2023-01-31T03:58:41.608Z,1020.39
2023-01-31T03:59:41.603Z,1020.42
2023-01-31T04:00:41.604Z,1020.41
2023-01-31T04:01:41.600Z,1020.47
2023-01-31T04:02:41.640Z,1020.43
2023-01-31T04:03:41.566Z,1020.48
2023-01-31T04:04:41.580Z,1020.53
2023-01-31T04:05:41.569Z,1020.46
2023-01-31T04:06:41.559Z,1020.47
2023-01-31T04:07:41.581Z,1020.45
2023-01-31T04:08:41.547Z,1020.45
2023-01-31T04:09:41.532Z,1020.46
2023-01-31T04:10:41.545Z,1020.42
2023-01-31T04:11:41.527Z,1020.42
2023-01-31T04:12:41.522Z,1020.36
2023-01-31T04:13:41.510Z,1020.40
2023-01-31T04:14:41.510Z,1020.41
2023-01-31T04:15:41.539Z,1020.36
2023-01-31T04:16:41.526Z,1020.39
2023-01-31T04:17:41.486Z,1020.30
2023-01-31T04:18:41.484Z,1020.30
2023-01-31T04:19:41.477Z,1020.25
2023-01-31T04:20:41.466Z,1020.27
2023-01-31T04:21:41.476Z,1020.25
2023-01-31T04:22:41.474Z,1020.22
2023-01-31T04:23:41.470Z,1020.19
2023-01-31T04:24:41.456Z,1020.20
2023-01-31T04:25:41.437Z,1020.21
2023-01-31T04:26:41.473Z,1020.21
2023-01-31T04:27:41.454Z,1020.20
2023-01-31T04:28:41.429Z,1020.17
2023-01-31T04:29:41.425Z,1020.13
2023-01-31T04:30:41.418Z,1020.10
2023-01-31T04:31:41.582Z,1020.09
2023-01-31T04:32:41.434Z,1020.09
2023-01-31T04:33:41.410Z,1020.11
2023-01-31T04:34:41.399Z,1020.13
2023-01-31T04:35:41.414Z,1020.13
2023-01-31T04:36:41.389Z,1020.10
2023-01-31T04:37:41.372Z,1020.08
2023-01-31T04:38:41.370Z,1020.02
2023-01-31T04:39:41.360Z,1020.04
2023-01-31T04:40:41.367Z,1020.03
2023-01-31T04:41:41.378Z,1020.05
2023-01-31T04:42:41.359Z,1020.07
2023-01-31T04:43:41.361Z,1020.05
2023-01-31T04:44:41.350Z,1020.07
2023-01-31T04:45:41.337Z,1020.03
2023-01-31T04:46:41.430Z,1020.05
2023-01-31T04:47:41.339Z,1020.07
2023-01-31T04:48:41.370Z,1020.05
2023-01-31T04:49:41.324Z,1020.07
2023-01-31T04:50:41.303Z,1020.02
2023-01-31T04:51:41.302Z,1020.02
2023-01-31T04:52:41.283Z,1020.04
2023-01-31T04:53:41.279Z,1020.01
2023-01-31T04:54:41.275Z,1020.00
2023-01-31T04:55:41.273Z,1019.99
2023-01-31T04:56:41.264Z,1019.97
2023-01-31T04:57:41.279Z,1019.98
2023-01-31T04:58:41.248Z,1019.99
2023-01-31T04:59:41.359Z,1019.99
2023-01-31T05:00:41.308Z,1020.00
2023-01-31T05:01:41.248Z,1020.01
2023-01-31T05:02:41.260Z,1019.96
2023-01-31T05:03:41.228Z,1019.96
2023-01-31T05:04:41.251Z,1019.96
2023-01-31T05:05:41.212Z,1019.96
2023-01-31T05:06:41.214Z,1019.97
2023-01-31T05:07:41.213Z,1019.96
2023-01-31T05:08:41.195Z,1019.96
2023-01-31T05:09:41.190Z,1019.96
2023-01-31T05:10:41.194Z,1019.96
2023-01-31T05:11:41.231Z,1019.95
2023-01-31T05:12:41.178Z,1019.95
2023-01-31T05:13:41.185Z,1019.99
2023-01-31T05:14:41.168Z,1020.00
2023-01-31T05:15:41.164Z,1019.97
2023-01-31T05:16:41.333Z,1019.94
2023-01-31T05:17:41.165Z,1019.89
2023-01-31T05:18:41.136Z,1019.93
2023-01-31T05:19:41.134Z,1019.93
2023-01-31T05:20:41.159Z,1019.85
2023-01-31T05:21:41.136Z,1019.87
2023-01-31T05:22:41.122Z,1019.87
2023-01-31T05:23:41.123Z,1019.88
2023-01-31T05:24:41.121Z,1019.92
2023-01-31T05:25:41.114Z,1019.90
2023-01-31T05:26:41.177Z,1019.89
2023-01-31T05:27:41.098Z,1019.81
2023-01-31T05:28:41.091Z,1019.82
2023-01-31T05:29:41.088Z,1019.77
2023-01-31T05:30:41.077Z,1019.78
2023-01-31T05:31:41.093Z,1019.75
2023-01-31T05:32:41.062Z,1019.78
2023-01-31T05:33:41.066Z,1019.81
2023-01-31T05:34:41.066Z,1019.81
2023-01-31T05:35:41.040Z,1019.84
2023-01-31T05:36:41.078Z,1019.90
2023-01-31T05:37:41.034Z,1019.87
2023-01-31T05:38:41.034Z,1019.83
2023-01-31T05:39:41.019Z,1019.79
2023-01-31T05:40:41.016Z,1019.85
2023-01-31T05:41:41.025Z,1019.81
2023-01-31T05:42:41.054Z,1019.80
2023-01-31T05:43:41.024Z,1019.83
2023-01-31T05:44:40.994Z,1019.79
2023-01-31T05:45:41.102Z,1019.81
2023-01-31T05:46:40.995Z,1019.79
2023-01-31T05:47:40.984Z,1019.84
2023-01-31T05:48:40.970Z,1019.85
2023-01-31T05:49:40.973Z,1019.83
2023-01-31T05:50:40.980Z,1019.80
2023-01-31T05:51:40.955Z,1019.82
2023-01-31T05:52:40.967Z,1019.83
2023-01-31T05:53:40.951Z,1019.83
2023-01-31T05:54:40.952Z,1019.86
2023-01-31T05:55:40.939Z,1019.85
2023-01-31T05:56:40.927Z,1019.90
2023-01-31T05:57:40.936Z,1019.89
2023-01-31T05:58:40.920Z,1019.89
2023-01-31T05:59:40.944Z,1019.93
2023-01-31T06:00:40.919Z,1019.88
2023-01-31T06:01:40.910Z,1019.85
2023-01-31T06:02:40.912Z,1019.85
2023-01-31T06:03:40.888Z,1019.85
2023-01-31T06:04:40.922Z,1019.86
2023-01-31T06:05:40.891Z,1019.89
2023-01-31T06:06:40.889Z,1019.90
2023-01-31T06:07:40.877Z,1019.87
2023-01-31T06:08:40.887Z,1019.86
2023-01-31T06:09:40.868Z,1019.83
2023-01-31T06:10:40.871Z,1019.84
2023-01-31T06:11:40.868Z,1019.82
2023-01-31T06:12:40.874Z,1019.79
2023-01-31T06:13:40.838Z,1019.83
2023-01-31T06:14:40.843Z,1019.86
2023-01-31T06:15:40.843Z,1019.79
2023-01-31T06:16:40.907Z,1019.81
2023-01-31T06:17:40.823Z,1019.84
2023-01-31T06:18:40.826Z,1019.84
2023-01-31T06:19:40.824Z,1019.80
2023-01-31T06:20:40.833Z,1019.73
2023-01-31T06:21:40.802Z,1019.74
2023-01-31T06:22:40.797Z,1019.75
2023-01-31T06:23:40.799Z,1019.76
2023-01-31T06:24:40.813Z,1019.72
2023-01-31T06:25:40.789Z,1019.70
2023-01-31T06:26:40.826Z,1019.65
2023-01-31T06:27:40.768Z,1019.59
2023-01-31T06:28:40.806Z,1019.60
2023-01-31T06:29:40.780Z,1019.61
2023-01-31T06:30:40.855Z,1019.57
2023-01-31T06:31:40.880Z,1019.56
2023-01-31T06:32:40.762Z,1019.57
2023-01-31T06:33:47.261Z,1019.56
2023-01-31T06:34:40.762Z,1019.57
2023-01-31T06:35:40.737Z,1019.54
2023-01-31T06:36:40.789Z,1019.60
2023-01-31T06:37:40.724Z,1019.56
2023-01-31T06:38:40.744Z,1019.54
2023-01-31T06:39:40.713Z,1019.51
2023-01-31T06:40:40.753Z,1019.50
2023-01-31T06:41:40.719Z,1019.48
2023-01-31T06:42:40.719Z,1019.42
2023-01-31T06:43:40.716Z,1019.40
2023-01-31T06:44:40.702Z,1019.43
2023-01-31T06:45:40.770Z,1019.35
2023-01-31T06:46:40.694Z,1019.39
2023-01-31T06:47:40.705Z,1019.40
2023-01-31T06:48:40.707Z,1019.41
2023-01-31T06:49:40.671Z,1019.48
2023-01-31T06:50:40.689Z,1019.48
2023-01-31T06:51:40.669Z,1019.50
2023-01-31T06:52:40.695Z,1019.43
2023-01-31T06:53:40.675Z,1019.44
2023-01-31T06:54:40.668Z,1019.40
2023-01-31T06:55:40.655Z,1019.50
2023-01-31T06:56:40.671Z,1019.49
2023-01-31T06:57:40.649Z,1019.51
2023-01-31T06:58:40.641Z,1019.55
2023-01-31T06:59:40.645Z,1019.61
2023-01-31T07:00:40.652Z,1019.64
2023-01-31T07:01:40.700Z,1019.65
2023-01-31T07:02:40.635Z,1019.65
2023-01-31T07:03:40.612Z,1019.63
2023-01-31T07:04:40.688Z,1019.65
2023-01-31T07:05:40.628Z,1019.63
2023-01-31T07:06:40.616Z,1019.65
2023-01-31T07:07:40.602Z,1019.67
2023-01-31T07:08:40.612Z,1019.64
2023-01-31T07:09:40.604Z,1019.64
2023-01-31T07:10:40.591Z,1019.68
2023-01-31T07:11:40.598Z,1019.66
2023-01-31T07:12:40.630Z,1019.67
2023-01-31T07:13:40.638Z,1019.66
2023-01-31T07:14:40.576Z,1019.64
2023-01-31T07:15:40.625Z,1019.71
2023-01-31T07:16:40.581Z,1019.66
2023-01-31T07:17:40.557Z,1019.70
2023-01-31T07:18:40.573Z,1019.77
2023-01-31T07:19:40.563Z,1019.76
2023-01-31T07:20:40.564Z,1019.77
2023-01-31T07:21:40.536Z,1019.75
2023-01-31T07:22:40.538Z,1019.75
2023-01-31T07:23:40.548Z,1019.70
2023-01-31T07:24:40.549Z,1019.75
2023-01-31T07:25:40.516Z,1019.71
2023-01-31T07:26:40.583Z,1019.80
2023-01-31T07:27:40.532Z,1019.83
2023-01-31T07:28:40.549Z,1019.88
2023-01-31T07:29:40.518Z,1019.89
2023-01-31T07:30:40.532Z,1019.92
2023-01-31T07:31:40.524Z,1019.95
2023-01-31T07:32:40.505Z,1019.98
2023-01-31T07:33:40.523Z,1019.98
2023-01-31T07:34:40.497Z,1019.90
2023-01-31T07:35:40.492Z,1019.87
2023-01-31T07:36:40.489Z,1019.85
2023-01-31T07:37:40.466Z,1019.84
2023-01-31T07:38:40.482Z,1019.78
2023-01-31T07:39:40.457Z,1019.83
2023-01-31T07:40:40.500Z,1019.80
2023-01-31T07:41:40.469Z,1019.77
2023-01-31T07:42:40.449Z,1019.76
2023-01-31T07:43:40.453Z,1019.76
2023-01-31T07:44:40.462Z,1019.68
2023-01-31T07:45:40.508Z,1019.68
2023-01-31T07:46:40.459Z,1019.72
2023-01-31T07:47:40.422Z,1019.77
2023-01-31T07:48:40.459Z,1019.73
2023-01-31T07:49:40.453Z,1019.65
2023-01-31T07:50:40.426Z,1019.60
2023-01-31T07:51:40.427Z,1019.53
2023-01-31T07:52:40.399Z,1019.50
2023-01-31T07:53:40.422Z,1019.51
2023-01-31T07:54:40.409Z,1019.49
2023-01-31T07:55:40.416Z,1019.47
2023-01-31T07:56:40.396Z,1019.44
2023-01-31T07:57:40.371Z,1019.50
2023-01-31T07:58:40.398Z,1019.42
2023-01-31T07:59:40.379Z,1019.37
2023-01-31T08:00:40.391Z,1019.31
2023-01-31T08:01:40.369Z,1019.33
2023-01-31T08:02:40.365Z,1019.39
2023-01-31T08:03:40.360Z,1019.31
2023-01-31T08:04:40.389Z,1019.29
2023-01-31T08:05:40.348Z,1019.33
2023-01-31T08:06:40.333Z,1019.30
2023-01-31T08:07:40.339Z,1019.31
2023-01-31T08:08:40.340Z,1019.31
2023-01-31T08:09:40.316Z,1019.36
2023-01-31T08:10:40.327Z,1019.38
2023-01-31T08:11:40.304Z,1019.41
2023-01-31T08:12:40.321Z,1019.42
2023-01-31T08:13:40.301Z,1019.44
2023-01-31T08:14:40.330Z,1019.47
2023-01-31T08:15:40.294Z,1019.41
2023-01-31T08:16:40.325Z,1019.40
2023-01-31T08:17:40.291Z,1019.51
2023-01-31T08:18:40.273Z,1019.53
2023-01-31T08:19:40.263Z,1019.50
2023-01-31T08:20:40.273Z,1019.52
2023-01-31T08:21:40.272Z,1019.44
2023-01-31T08:22:40.258Z,1019.49
2023-01-31T08:23:40.247Z,1019.56
2023-01-31T08:24:40.261Z,1019.54
2023-01-31T08:25:40.262Z,1019.50
2023-01-31T08:26:40.278Z,1019.45
2023-01-31T08:27:40.235Z,1019.50
2023-01-31T08:28:40.227Z,1019.46
2023-01-31T08:29:40.218Z,1019.39
2023-01-31T08:30:40.247Z,1019.32
2023-01-31T08:31:40.358Z,1019.27
2023-01-31T08:32:40.242Z,1019.32
2023-01-31T08:33:40.204Z,1019.28
2023-01-31T08:34:40.261Z,1019.29
2023-01-31T08:35:40.198Z,1019.28
2023-01-31T08:36:40.235Z,1019.27
2023-01-31T08:37:40.197Z,1019.23
2023-01-31T08:38:40.298Z,1019.27
2023-01-31T08:39:40.207Z,1019.23
2023-01-31T08:40:40.164Z,1019.33
2023-01-31T08:41:40.175Z,1019.39
2023-01-31T08:42:40.176Z,1019.25
2023-01-31T08:43:54.367Z,1019.35
2023-01-31T08:44:40.159Z,1019.26
2023-01-31T08:45:40.154Z,1019.22
2023-01-31T08:46:40.200Z,1019.15
2023-01-31T08:47:40.125Z,1019.06
2023-01-31T08:48:40.165Z,1019.10
2023-01-31T08:49:40.138Z,1019.09
2023-01-31T08:50:40.658Z,1019.17
2023-01-31T08:51:40.139Z,1019.19
2023-01-31T08:52:40.111Z,1019.24
2023-01-31T08:53:40.094Z,1019.23
2023-01-31T08:54:40.114Z,1019.19
2023-01-31T08:55:40.101Z,1019.24
2023-01-31T08:56:40.126Z,1019.26
2023-01-31T08:57:52.643Z,1019.21
2023-01-31T08:58:40.105Z,1019.20
2023-01-31T08:59:40.567Z,1019.30
2023-01-31T09:00:40.626Z,1019.22
2023-01-31T09:01:40.660Z,1019.25
2023-01-31T09:02:40.095Z,1019.31
2023-01-31T09:03:40.256Z,1019.31
2023-01-31T09:04:40.264Z,1019.19
2023-01-31T09:05:40.106Z,1019.20
2023-01-31T09:06:40.056Z,1019.18
2023-01-31T09:07:40.035Z,1019.23
2023-01-31T09:08:40.023Z,1019.21
2023-01-31T09:09:40.019Z,1019.18
2023-01-31T09:10:40.028Z,1019.20
2023-01-31T09:11:40.023Z,1019.21
2023-01-31T09:12:40.018Z,1019.11
2023-01-31T09:13:39.998Z,1019.12
2023-01-31T09:14:40.026Z,1019.13
2023-01-31T09:15:39.996Z,1019.07
2023-01-31T09:16:41.820Z,1019.04
2023-01-31T09:17:39.985Z,1019.03
2023-01-31T09:18:39.977Z,1019.17
2023-01-31T09:19:39.962Z,1019.14
2023-01-31T09:20:39.990Z,1019.16
2023-01-31T09:21:39.976Z,1019.04
2023-01-31T09:22:39.984Z,1019.03
2023-01-31T09:23:42.410Z,1019.02
2023-01-31T09:24:39.948Z,1019.01
2023-01-31T09:25:47.028Z,1018.97
2023-01-31T09:26:40.015Z,1018.94
2023-01-31T09:27:39.944Z,1018.94
2023-01-31T09:28:39.946Z,1018.89
2023-01-31T09:29:39.913Z,1018.94
2023-01-31T09:30:39.995Z,1018.91
2023-01-31T09:31:39.941Z,1018.95
2023-01-31T09:32:39.911Z,1018.97
2023-01-31T09:33:39.903Z,1018.88
2023-01-31T09:34:39.904Z,1018.86
2023-01-31T09:35:39.895Z,1018.90
2023-01-31T09:36:39.925Z,1018.89
2023-01-31T09:37:39.887Z,1018.91
2023-01-31T09:38:39.874Z,1018.90
2023-01-31T09:39:39.867Z,1018.95
2023-01-31T09:40:39.881Z,1018.95
2023-01-31T09:41:39.880Z,1018.90
2023-01-31T09:42:39.848Z,1018.89
2023-01-31T09:43:39.846Z,1018.86
2023-01-31T09:44:39.830Z,1018.87
2023-01-31T09:45:39.853Z,1018.92
2023-01-31T09:46:39.879Z,1018.93
2023-01-31T09:47:39.842Z,1018.93
2023-01-31T09:48:39.811Z,1018.87
2023-01-31T09:49:39.827Z,1018.96
2023-01-31T09:50:39.831Z,1018.86
2023-01-31T09:51:39.809Z,1018.86
2023-01-31T09:52:39.832Z,1018.89
2023-01-31T09:53:39.790Z,1018.83
2023-01-31T09:54:39.793Z,1018.78
2023-01-31T09:55:39.789Z,1018.80
2023-01-31T09:56:39.792Z,1018.79
2023-01-31T09:57:39.771Z,1018.77
2023-01-31T09:58:39.779Z,1018.74
2023-01-31T09:59:39.783Z,1018.75
2023-01-31T10:00:39.825Z,1018.68
2023-01-31T10:01:39.751Z,1018.67
2023-01-31T10:02:39.742Z,1018.70
2023-01-31T10:03:39.769Z,1018.67
2023-01-31T10:04:39.737Z,1018.69
2023-01-31T10:05:39.745Z,1018.68
2023-01-31T10:06:39.741Z,1018.75
2023-01-31T10:07:39.741Z,1018.68
2023-01-31T10:08:39.740Z,1018.69
2023-01-31T10:09:39.713Z,1018.70
2023-01-31T10:10:39.736Z,1018.75
2023-01-31T10:11:39.700Z,1018.62
2023-01-31T10:12:39.705Z,1018.69
2023-01-31T10:13:39.721Z,1018.66
2023-01-31T10:14:39.698Z,1018.67
2023-01-31T10:15:39.698Z,1018.73
2023-01-31T10:16:39.690Z,1018.67
2023-01-31T10:17:39.694Z,1018.64
2023-01-31T10:18:39.666Z,1018.64
2023-01-31T10:19:39.673Z,1018.57
2023-01-31T10:20:39.652Z,1018.61
2023-01-31T10:21:39.667Z,1018.52
2023-01-31T10:22:39.656Z,1018.45
2023-01-31T10:23:39.651Z,1018.53
2023-01-31T10:24:39.671Z,1018.47
2023-01-31T10:25:39.650Z,1018.43
2023-01-31T10:26:39.676Z,1018.44
2023-01-31T10:27:39.617Z,1018.46
2023-01-31T10:28:39.632Z,1018.44
2023-01-31T10:29:39.630Z,1018.48
2023-01-31T10:30:39.614Z,1018.40
2023-01-31T10:31:41.019Z,1018.44
2023-01-31T10:32:39.594Z,1018.39
2023-01-31T10:33:39.607Z,1018.30
2023-01-31T10:34:39.581Z,1018.30
2023-01-31T10:35:39.606Z,1018.32
2023-01-31T10:36:39.580Z,1018.23
2023-01-31T10:37:39.566Z,1018.30
2023-01-31T10:38:39.571Z,1018.27
2023-01-31T10:39:39.580Z,1018.21
2023-01-31T10:40:39.586Z,1018.19
2023-01-31T10:41:39.561Z,1018.21
2023-01-31T10:42:39.541Z,1018.16
2023-01-31T10:43:40.884Z,1018.11
2023-01-31T10:44:39.539Z,1018.13
2023-01-31T10:45:39.596Z,1018.12
2023-01-31T10:46:39.533Z,1018.17
2023-01-31T10:47:39.519Z,1018.18
2023-01-31T10:48:39.506Z,1018.18
2023-01-31T10:49:39.519Z,1018.21
2023-01-31T10:50:39.503Z,1018.17
2023-01-31T10:51:39.524Z,1018.16
2023-01-31T10:52:39.503Z,1018.06
2023-01-31T10:53:39.517Z,1018.09
2023-01-31T10:54:39.488Z,1018.02
2023-01-31T10:55:39.787Z,1017.92
2023-01-31T10:56:39.934Z,1017.87
2023-01-31T10:57:39.463Z,1017.87
2023-01-31T10:58:39.979Z,1017.85
2023-01-31T10:59:39.483Z,1017.80
2023-01-31T11:00:39.487Z,1017.93
2023-01-31T11:01:39.465Z,1017.87
2023-01-31T11:02:39.515Z,1017.89
2023-01-31T11:03:39.436Z,1017.82
2023-01-31T11:04:39.426Z,1017.86
2023-01-31T11:05:39.420Z,1017.78
2023-01-31T11:06:39.440Z,1017.69
2023-01-31T11:07:39.435Z,1017.67
2023-01-31T11:08:39.443Z,1017.59
2023-01-31T11:09:39.402Z,1017.60
2023-01-31T11:10:39.403Z,1017.56
2023-01-31T11:11:39.405Z,1017.49
2023-01-31T11:12:39.420Z,1017.48
2023-01-31T11:13:39.388Z,1017.51
2023-01-31T11:14:39.389Z,1017.53
2023-01-31T11:15:39.380Z,1017.51
2023-01-31T11:16:39.451Z,1017.55
2023-01-31T11:17:39.365Z,1017.60
2023-01-31T11:18:39.372Z,1017.55
2023-01-31T11:19:39.351Z,1017.48
2023-01-31T11:20:39.349Z,1017.31
2023-01-31T11:21:39.358Z,1017.49
2023-01-31T11:22:39.343Z,1017.27
2023-01-31T11:23:39.346Z,1017.27
2023-01-31T11:24:39.328Z,1017.33
2023-01-31T11:25:39.326Z,1017.27
2023-01-31T11:26:39.448Z,1017.25
2023-01-31T11:27:39.327Z,1017.24
2023-01-31T11:28:39.325Z,1017.20
2023-01-31T11:29:39.300Z,1017.15
2023-01-31T11:30:39.339Z,1017.17
2023-01-31T11:31:39.368Z,1017.15
2023-01-31T11:32:39.292Z,1017.17
2023-01-31T11:33:39.299Z,1017.13
2023-01-31T11:34:39.288Z,1017.16
2023-01-31T11:35:39.279Z,1017.17
2023-01-31T11:36:39.262Z,1017.23
2023-01-31T11:37:39.271Z,1017.14
2023-01-31T11:38:39.252Z,1017.16
2023-01-31T11:39:39.275Z,1017.13
2023-01-31T11:40:39.251Z,1017.12
2023-01-31T11:41:39.249Z,1017.07
2023-01-31T11:42:39.234Z,1017.07
2023-01-31T11:43:39.245Z,1017.07
2023-01-31T11:44:39.244Z,1017.07
2023-01-31T11:45:39.248Z,1017.02
2023-01-31T11:46:39.226Z,1017.04
2023-01-31T11:47:39.235Z,1017.01
2023-01-31T11:48:39.203Z,1017.07
2023-01-31T11:49:39.209Z,1017.07
2023-01-31T11:50:39.192Z,1017.03
2023-01-31T11:51:39.208Z,1017.05
2023-01-31T11:52:39.187Z,1017.06
2023-01-31T11:53:39.195Z,1017.08
2023-01-31T11:54:39.176Z,1016.90
2023-01-31T11:55:39.186Z,1016.94
2023-01-31T11:56:39.159Z,1016.91
2023-01-31T11:57:39.152Z,1016.87
2023-01-31T11:58:39.166Z,1016.93
2023-01-31T11:59:39.156Z,1016.89
2023-01-31T12:00:39.182Z,1016.87
2023-01-31T12:01:39.135Z,1016.78
2023-01-31T12:02:39.196Z,1016.88
2023-01-31T12:03:51.741Z,1016.88
2023-01-31T12:04:39.112Z,1016.92
2023-01-31T12:05:39.139Z,1016.90